Time;durP1;ratioP1;P1;durP2;ratioP2;P2;SDS_P1;SDS_P2;PMS_P1;PMS_P2;Temp;Humidity;BMP_temperature;BMP_pressure;BME280_temperature;BME280_humidity;BME280_pressure;Samples;Min_cycle;Max_cycle;Signal;HPM_P1;HPM_P2
2022/12/26 00:01:35;;;;;;;;;6.00;5.00;;;;;14.64;73.88;101006.13;5102379;27;45402;-59
2022/12/26 00:04:01;;;;;;;;;4.25;4.00;;;;;14.67;74.30;101012.28;5102030;27;45530;-60
2022/12/26 00:06:28;;;;;;;;;7.50;5.00;;;;;14.73;74.20;101020.09;5101969;27;45444;-59
2022/12/26 00:08:54;;;;;;;;;9.25;7.25;;;;;14.74;74.28;101027.22;5101955;27;45377;-59
2022/12/26 00:11:21;;;;;;;;;9.00;7.25;;;;;14.75;74.29;101015.50;5102083;27;45377;-59
2022/12/26 00:13:46;;;;;;;;;6.25;4.25;;;;;14.76;74.02;101018.13;5102210;27;45453;-59
2022/12/26 00:16:18;;;;;;;;;6.00;5.00;;;;;14.73;74.12;101018.25;5102042;27;45334;-60
2022/12/26 00:18:44;;;;;;;;;5.25;4.00;;;;;14.76;73.98;101022.66;5101778;27;45544;-59
2022/12/26 00:21:11;;;;;;;;;7.50;6.75;;;;;14.76;74.32;101022.66;5101098;27;45420;-60
2022/12/26 00:23:37;;;;;;;;;6.25;5.25;;;;;14.77;74.09;101019.03;5101724;27;45442;-59
2022/12/26 00:26:04;;;;;;;;;6.50;6.50;;;;;14.71;74.02;101011.22;5101836;27;45395;-60
2022/12/26 00:28:29;;;;;;;;;6.50;5.00;;;;;14.74;74.45;101033.47;5101735;27;45524;-60
2022/12/26 00:30:54;;;;;;;;;5.25;4.75;;;;;14.70;74.09;101014.84;5083847;27;45310;-60
2022/12/26 00:33:20;;;;;;;;;6.50;5.75;;;;;14.72;74.03;101018.38;5115737;27;45513;-60
2022/12/26 00:35:45;;;;;;;;;4.25;4.25;;;;;14.64;74.47;101005.25;5103676;27;47543;-60
2022/12/26 00:38:10;;;;;;;;;6.50;5.50;;;;;14.70;73.80;101013.06;5122360;27;45296;-59
2022/12/26 00:40:41;;;;;;;;;6.25;5.50;;;;;14.64;74.24;101005.25;5104183;27;45636;-60
2022/12/26 00:43:07;;;;;;;;;4.50;4.50;;;;;14.66;74.16;100994.44;5122167;27;45462;-59
2022/12/26 00:45:32;;;;;;;;;8.75;5.00;;;;;14.70;74.24;101014.84;5122171;27;45575;-60
2022/12/26 00:47:57;;;;;;;;;5.25;4.25;;;;;14.61;74.20;101008.09;5122204;27;45389;-59
2022/12/26 00:50:23;;;;;;;;;5.25;5.00;;;;;14.61;74.29;101014.31;5122317;27;45505;-60
2022/12/26 00:52:48;;;;;;;;;6.50;5.00;;;;;14.67;73.92;101034.69;5103438;27;45262;-60
2022/12/26 00:55:13;;;;;;;;;6.25;4.00;;;;;14.64;74.38;101030.31;5103538;27;46912;-60
2022/12/26 00:57:39;;;;;;;;;4.00;4.00;;;;;14.58;74.45;101005.50;5094766;27;45425;-60
2022/12/26 01:00:05;;;;;;;;;4.00;4.00;;;;;14.60;74.34;101012.59;5103683;27;45458;-60
2022/12/26 01:02:36;;;;;;;;;4.75;4.00;;;;;14.58;74.39;101010.88;5122014;27;45483;-60
2022/12/26 01:05:02;;;;;;;;;7.00;5.75;;;;;14.48;74.51;100994.28;5103042;27;48197;-59
2022/12/26 01:07:27;;;;;;;;;3.25;3.25;;;;;14.58;74.51;101027.88;5103240;27;45498;-59
2022/12/26 01:09:52;;;;;;;;;5.25;5.00;;;;;14.55;74.52;101021.75;5121977;27;45522;-60
2022/12/26 01:12:18;;;;;;;;;3.75;3.75;;;;;14.50;74.68;101015.72;5121668;27;45444;-59
2022/12/26 01:14:43;;;;;;;;;3.00;3.00;;;;;14.60;74.61;101042.16;5121776;27;46271;-59
2022/12/26 01:17:09;;;;;;;;;3.75;3.75;;;;;14.41;74.17;101012.50;5121679;27;45361;-60
2022/12/26 01:19:34;;;;;;;;;2.00;1.75;;;;;14.50;74.38;101034.50;5121783;27;45434;-60
2022/12/26 01:21:59;;;;;;;;;4.75;2.50;;;;;14.50;74.37;101040.78;5121564;27;45360;-60
2022/12/26 01:24:25;;;;;;;;;3.50;3.50;;;;;14.58;74.46;101053.84;5102905;27;48219;-60
2022/12/26 01:26:50;;;;;;;;;4.75;4.00;;;;;14.55;74.25;101048.59;5121510;27;45392;-59
2022/12/26 01:29:15;;;;;;;;;3.00;3.00;;;;;14.52;74.20;101040.72;5121763;27;45401;-59
2022/12/26 01:31:40;;;;;;;;;4.00;3.00;;;;;14.52;74.05;101040.72;5113405;27;45273;-59
2022/12/26 01:34:06;;;;;;;;;5.25;2.75;;;;;14.55;74.39;101040.56;5078665;27;48280;-60
2022/12/26 01:36:31;;;;;;;;;2.25;2.00;;;;;14.46;74.37;101028.41;5075362;27;45438;-59
2022/12/26 01:38:56;;;;;;;;;3.00;2.00;;;;;14.52;74.26;101048.78;5100834;27;45373;-59
2022/12/26 01:41:22;;;;;;;;;4.75;3.00;;;;;14.46;74.44;101055.25;5082280;27;45495;-59
2022/12/26 01:44:27;;;;;;;;;3.00;1.50;;;;;14.41;74.34;101050.09;5086577;27;45382;-60
2022/12/26 01:46:52;;;;;;;;;1.50;1.50;;;;;14.29;74.34;101039.88;5100350;27;45315;-59
2022/12/26 01:49:28;;;;;;;;;3.00;3.00;;;;;14.51;74.62;101090.84;5100520;27;45397;-59
2022/12/26 01:51:58;;;;;;;;;3.00;2.00;;;;;14.52;74.36;101097.13;5081518;27;45571;-59
2022/12/26 01:54:29;;;;;;;;;3.00;3.00;;;;;14.46;74.05;101101.78;5078986;27;47323;-59
2022/12/26 01:56:55;;;;;;;;;3.00;2.00;;;;;14.43;74.16;101101.06;5100582;27;45385;-60
2022/12/26 01:59:25;;;;;;;;;3.25;2.50;;;;;14.44;74.38;101100.13;5100353;27;45518;-59
2022/12/26 02:01:52;;;;;;;;;2.75;2.00;;;;;14.50;74.21;101113.31;5082113;27;45586;-60
2022/12/26 02:07:31;;;;;;;;;3.00;2.00;;;;;14.47;74.50;101100.00;5011538;28;45520;-59
2022/12/26 02:09:56;;;;;;;;;1.75;1.75;;;;;14.44;74.34;101098.31;5017362;28;45436;-60
2022/12/26 02:12:31;;;;;;;;;3.00;3.00;;;;;14.40;74.64;101101.19;5065949;27;45372;-59
2022/12/26 02:14:57;;;;;;;;;2.25;2.00;;;;;14.40;74.34;101096.72;5120722;27;45434;-59
2022/12/26 02:17:24;;;;;;;;;2.25;2.00;;;;;14.35;74.20;101087.06;5102192;27;46398;-59
2022/12/26 02:20:09;;;;;;;;;2.25;2.25;;;;;14.43;74.38;101093.00;5120873;27;45314;-60
2022/12/26 02:23:08;;;;;;;;;2.00;1.00;;;;;14.42;74.50;101080.53;5120553;27;45426;-60
2022/12/26 02:26:14;;;;;;;;;2.75;1.25;;;;;14.40;74.34;101077.00;5102081;27;46520;-59
2022/12/26 02:28:55;;;;;;;;;1.00;1.00;;;;;14.38;74.50;101081.56;5102099;27;45624;-60
2022/12/26 02:31:51;;;;;;;;;1.00;1.00;;;;;14.36;74.29;101087.00;5097475;27;45679;-59
2022/12/26 02:34:26;;;;;;;;;1.00;1.00;;;;;14.37;74.47;101109.41;5087408;27;45590;-59
2022/12/26 02:37:19;;;;;;;;;2.50;1.00;;;;;14.34;74.51;101110.38;5099749;27;45415;-59
2022/12/26 02:40:09;;;;;;;;;1.00;1.00;;;;;14.34;74.75;101109.53;5099923;27;45314;-60
2022/12/26 02:42:41;;;;;;;;;1.25;1.25;;;;;14.32;74.63;101106.91;5099943;27;45598;-60
2022/12/26 02:48:37;;;;;;;;;1.00;1.00;;;;;14.29;74.71;101056.00;5099590;27;45782;-59
2022/12/26 03:14:53;;;;;;;;;0.50;0.50;;;;;14.30;74.73;101081.03;5099508;27;45326;-59
2022/12/26 03:17:27;;;;;;;;;1.00;1.00;;;;;14.29;74.75;101082.84;5098091;27;45350;-59
2022/12/26 03:20:01;;;;;;;;;0.00;0.00;;;;;14.07;74.73;101039.94;5080477;27;46029;-59
2022/12/26 03:22:30;;;;;;;;;1.00;1.00;;;;;14.26;74.74;101072.25;5099113;27;45507;-59
2022/12/26 03:27:41;;;;;;;;;1.00;1.00;;;;;14.26;74.82;101074.94;5099361;27;45512;-59
2022/12/26 03:32:53;;;;;;;;;0.50;0.50;;;;;14.23;75.09;101080.41;5108943;27;45653;-59
2022/12/26 03:35:19;;;;;;;;;0.25;0.25;;;;;14.17;74.58;101065.44;5119608;27;45330;-59
2022/12/26 03:37:56;;;;;;;;;0.00;0.00;;;;;14.26;75.01;101080.28;5119919;27;45312;-60
2022/12/26 04:44:32;;;;;;;;;2.00;1.00;;;;;14.08;75.29;101128.47;5101716;27;45404;-59
2022/12/26 04:46:58;;;;;;;;;1.75;1.00;;;;;14.07;75.05;101129.38;5083300;27;45433;-60
2022/12/26 04:52:11;;;;;;;;;2.00;2.00;;;;;14.14;75.17;101158.69;5088787;27;45492;-59
2022/12/26 04:54:37;;;;;;;;;3.25;1.00;;;;;14.13;75.46;101154.22;5082814;27;45929;-59
2022/12/26 04:57:04;;;;;;;;;1.00;0.00;;;;;14.06;75.09;101164.34;5101776;27;45346;-59
2022/12/26 04:59:30;;;;;;;;;1.00;1.00;;;;;14.03;75.19;101168.03;5101252;27;45556;-60
2022/12/26 05:10:17;;;;;;;;;1.00;1.00;;;;;14.12;75.06;101182.03;5101224;27;45401;-59
2022/12/26 05:12:42;;;;;;;;;3.75;1.00;;;;;14.04;75.15;101182.31;5082603;27;47452;-59
2022/12/26 05:15:09;;;;;;;;;1.00;1.00;;;;;14.06;75.50;101173.25;5082866;27;45245;-60
2022/12/26 05:28:41;;;;;;;;;1.00;1.00;;;;;14.07;75.18;101171.47;5101090;27;45497;-60
2022/12/26 05:31:08;;;;;;;;;1.00;1.00;;;;;13.97;75.27;101160.22;5101041;27;45306;-59
2022/12/26 05:36:20;;;;;;;;;4.00;1.00;;;;;14.05;75.02;101167.97;5100863;27;45319;-60
2022/12/26 05:38:47;;;;;;;;;1.00;1.00;;;;;13.98;75.18;101171.81;5082382;27;45391;-59
2022/12/26 05:41:13;;;;;;;;;1.00;1.00;;;;;14.00;74.83;101169.94;5100869;27;45417;-59
2022/12/26 05:43:38;;;;;;;;;3.00;1.00;;;;;13.99;74.96;101185.19;5100516;27;45403;-59
2022/12/26 05:46:04;;;;;;;;;0.50;0.50;;;;;14.04;74.82;101203.81;5100725;27;45448;-59
2022/12/26 05:48:29;;;;;;;;;1.00;1.00;;;;;13.99;74.88;101201.28;5100552;27;45366;-60
2022/12/26 05:50:59;;;;;;;;;0.00;0.00;;;;;14.00;74.86;101219.16;5082310;27;45496;-59
2022/12/26 05:53:25;;;;;;;;;2.00;2.00;;;;;13.95;74.86;101213.09;5095606;27;47405;-59
2022/12/26 05:55:50;;;;;;;;;0.00;0.00;;;;;13.99;74.74;101224.59;5094020;27;45322;-59
2022/12/26 05:58:16;;;;;;;;;0.25;0.25;;;;;13.95;74.70;101222.94;5081705;27;45552;-60
2022/12/26 06:00:41;;;;;;;;;2.00;1.00;;;;;13.89;74.60;101214.19;5100505;27;45425;-60
2022/12/26 06:03:06;;;;;;;;;1.00;1.00;;;;;13.95;74.55;101217.56;5100202;27;46105;-59
2022/12/26 06:05:32;;;;;;;;;1.75;1.00;;;;;13.95;74.16;101218.47;5081833;27;45829;-60
2022/12/26 06:07:57;;;;;;;;;2.00;0.00;;;;;13.84;74.45;101196.53;5100285;27;45399;-59
2022/12/26 06:10:25;;;;;;;;;0.00;0.00;;;;;13.94;74.02;101223.88;5100390;27;45513;-60
2022/12/26 06:12:50;;;;;;;;;0.25;0.25;;;;;13.88;73.99;101211.56;5100167;27;45477;-59
2022/12/26 06:15:15;;;;;;;;;2.00;1.00;;;;;13.87;74.11;101223.25;5098945;27;45460;-60
2022/12/26 06:17:41;;;;;;;;;2.75;1.00;;;;;13.82;73.81;101212.69;5099813;27;45767;-59
2022/12/26 06:20:07;;;;;;;;;0.00;0.00;;;;;13.80;74.01;101206.50;5099285;27;45710;-59
2022/12/26 06:22:32;;;;;;;;;0.00;0.00;;;;;13.80;73.69;101208.28;5099821;27;45309;-59
2022/12/26 06:24:57;;;;;;;;;0.25;0.25;;;;;13.83;73.80;101205.50;5099992;27;45259;-60
2022/12/26 06:27:23;;;;;;;;;0.25;0.25;;;;;13.76;73.78;101204.84;5100240;27;45532;-59
2022/12/26 06:29:48;;;;;;;;;1.25;1.00;;;;;13.76;73.61;101206.69;5100125;27;45318;-59
2022/12/26 06:32:14;;;;;;;;;1.25;1.25;;;;;13.68;73.61;101199.81;5076653;28;47183;-60
2022/12/26 06:34:39;;;;;;;;;1.25;0.75;;;;;13.65;73.65;101201.72;5102015;27;45312;-59
2022/12/26 06:37:04;;;;;;;;;4.00;2.00;;;;;13.63;73.72;101206.25;5102102;27;45381;-59
2022/12/26 06:39:30;;;;;;;;;2.00;2.00;;;;;13.70;73.62;101227.44;5120565;27;45374;-59
2022/12/26 06:41:55;;;;;;;;;2.00;1.00;;;;;13.68;73.83;101237.38;5120389;27;45504;-59
2022/12/26 06:44:21;;;;;;;;;0.75;0.75;;;;;13.69;73.64;101239.09;5101938;27;46072;-59
2022/12/26 06:46:46;;;;;;;;;0.25;0.25;;;;;13.66;73.67;101238.34;5120436;27;45485;-59
2022/12/26 06:49:11;;;;;;;;;1.75;1.75;;;;;13.62;73.67;101242.09;5101709;27;45522;-59
2022/12/26 06:51:37;;;;;;;;;0.50;0.50;;;;;13.58;73.52;101237.75;5102018;27;45412;-59
2022/12/26 06:54:02;;;;;;;;;1.50;1.50;;;;;13.55;73.33;101241.44;5120166;27;45360;-59
2022/12/26 06:56:29;;;;;;;;;1.00;1.00;;;;;13.57;73.81;101247.59;5112892;27;45540;-59
2022/12/26 06:58:57;;;;;;;;;1.25;1.00;;;;;13.63;73.70;101254.53;5082347;27;45870;-59
2022/12/26 07:01:23;;;;;;;;;1.00;1.00;;;;;13.54;73.53;101245.03;5102031;27;45388;-59
2022/12/26 07:03:51;;;;;;;;;1.00;1.00;;;;;13.58;73.82;101245.78;5119917;27;45597;-59
2022/12/26 07:06:25;;;;;;;;;1.00;1.00;;;;;13.60;73.65;101260.03;5120114;27;45510;-59
2022/12/26 07:08:53;;;;;;;;;0.50;0.50;;;;;13.59;73.60;101264.53;5101459;27;46256;-59
2022/12/26 07:11:24;;;;;;;;;1.00;1.00;;;;;13.50;73.69;101257.69;5119849;27;46390;-59
2022/12/26 07:13:50;;;;;;;;;1.00;1.00;;;;;13.51;73.68;101259.44;5120142;27;45434;-59
2022/12/26 07:16:16;;;;;;;;;1.25;1.25;;;;;13.55;73.52;101278.09;5101606;27;45510;-59
2022/12/26 07:18:42;;;;;;;;;1.25;1.25;;;;;13.51;73.78;101270.19;5119744;27;45346;-60
2022/12/26 07:21:10;;;;;;;;;1.00;1.00;;;;;13.57;73.72;101287.84;5084362;27;47990;-59
2022/12/26 07:23:36;;;;;;;;;1.00;1.00;;;;;13.47;73.58;101264.97;5119829;27;45388;-59
2022/12/26 07:26:01;;;;;;;;;1.50;1.00;;;;;13.55;73.63;101289.72;5119818;27;45633;-59
2022/12/26 07:28:27;;;;;;;;;1.50;1.50;;;;;13.47;73.57;101289.97;5119879;27;45535;-59
2022/12/26 07:30:53;;;;;;;;;2.00;1.00;;;;;13.42;73.65;101289.25;5121181;27;46098;-59
2022/12/26 07:33:19;;;;;;;;;2.00;2.00;;;;;13.50;73.89;101308.66;5102385;27;45330;-59
2022/12/26 07:35:44;;;;;;;;;1.25;1.00;;;;;13.40;73.85;101277.72;5102919;27;45314;-59
2022/12/26 07:38:11;;;;;;;;;2.50;2.50;;;;;13.37;73.92;101274.28;5102664;27;45384;-59
2022/12/26 07:40:36;;;;;;;;;2.00;2.00;;;;;13.43;73.71;101285.66;5083508;27;46322;-59
2022/12/26 07:43:02;;;;;;;;;0.75;0.75;;;;;13.50;73.57;101295.25;5080718;28;45922;-59
2022/12/26 07:45:27;;;;;;;;;3.50;2.25;;;;;13.39;73.77;101275.97;5088939;27;45544;-60
2022/12/26 07:47:57;;;;;;;;;2.00;2.00;;;;;13.23;73.78;101259.53;5102654;27;45440;-59
2022/12/26 07:50:23;;;;;;;;;1.00;1.00;;;;;13.41;73.98;101297.38;5084067;27;48318;-59
2022/12/26 07:52:49;;;;;;;;;3.00;1.75;;;;;13.41;73.48;101295.53;5102435;27;45544;-59
2022/12/26 07:55:14;;;;;;;;;3.00;2.00;;;;;13.39;74.04;101300.09;5102775;27;45266;-59
2022/12/26 07:57:40;;;;;;;;;5.00;3.25;;;;;13.47;73.76;101321.28;5083663;27;45536;-59
2022/12/26 08:00:06;;;;;;;;;3.00;3.00;;;;;13.46;74.19;101325.75;5102478;27;45272;-59
2022/12/26 08:02:31;;;;;;;;;2.00;2.00;;;;;13.36;74.08;101315.44;5083754;27;45420;-59
2022/12/26 08:04:57;;;;;;;;;2.00;2.00;;;;;13.47;73.83;101332.03;5102179;27;45347;-59
2022/12/26 08:07:22;;;;;;;;;1.00;1.00;;;;;13.40;74.11;101325.09;5102226;27;45447;-60
2022/12/26 08:09:47;;;;;;;;;2.00;2.00;;;;;13.46;74.34;101333.81;5083625;27;47384;-59
2022/12/26 08:12:13;;;;;;;;;3.25;1.00;;;;;13.42;74.36;101323.25;5080383;28;45400;-59
2022/12/26 08:14:39;;;;;;;;;1.00;1.00;;;;;13.43;73.88;101327.69;5101797;27;45762;-59
2022/12/26 08:17:05;;;;;;;;;1.50;1.00;;;;;13.45;73.99;101333.88;5102195;27;45462;-59
2022/12/26 08:19:31;;;;;;;;;0.75;0.75;;;;;13.44;74.14;101335.66;5083463;27;47621;-59
2022/12/26 08:21:56;;;;;;;;;4.25;1.50;;;;;13.51;74.28;101339.00;5097343;27;46369;-59
2022/12/26 08:24:22;;;;;;;;;1.00;1.00;;;;;13.37;74.23;101323.41;5088412;27;45383;-59
2022/12/26 08:26:47;;;;;;;;;1.00;1.00;;;;;13.48;74.02;101345.38;5083385;27;45466;-59
2022/12/26 08:29:13;;;;;;;;;1.00;1.00;;;;;13.51;74.10;101352.44;5083504;27;47169;-59
2022/12/26 08:31:38;;;;;;;;;0.00;0.00;;;;;13.50;74.05;101348.00;5087394;27;45407;-60
2022/12/26 08:34:03;;;;;;;;;1.75;0.00;;;;;13.54;73.83;101365.72;5101536;27;45295;-59
2022/12/26 08:36:29;;;;;;;;;3.00;2.00;;;;;13.53;73.90;101362.19;5083495;27;45293;-60
2022/12/26 08:38:54;;;;;;;;;1.50;1.25;;;;;13.55;73.88;101380.00;5101526;27;45773;-59
2022/12/26 08:41:20;;;;;;;;;1.75;1.75;;;;;13.51;73.86;101364.06;5082165;27;45345;-60
2022/12/26 08:43:50;;;;;;;;;3.75;0.00;;;;;13.57;73.58;101378.19;5079999;28;45411;-59
2022/12/26 08:46:16;;;;;;;;;2.00;1.00;;;;;13.52;73.85;101370.28;5076573;27;45362;-59
2022/12/26 08:48:42;;;;;;;;;0.25;0.25;;;;;13.59;73.68;101382.53;5083145;27;48464;-59
2022/12/26 08:51:25;;;;;;;;;2.00;2.00;;;;;13.34;73.61;101340.47;5101429;27;45334;-59
2022/12/26 08:53:53;;;;;;;;;1.75;1.00;;;;;13.56;73.69;101381.78;5101539;27;45758;-60
2022/12/26 08:56:22;;;;;;;;;1.00;1.00;;;;;13.55;73.26;101394.31;5101269;27;45352;-59
2022/12/26 08:58:47;;;;;;;;;2.00;1.50;;;;;13.53;73.46;101388.09;5082887;27;48055;-59
2022/12/26 09:01:16;;;;;;;;;2.00;1.00;;;;;13.58;73.63;101396.00;5101368;27;45384;-60
2022/12/26 09:03:42;;;;;;;;;4.75;1.00;;;;;13.57;73.76;101396.97;5082856;27;45345;-59
2022/12/26 09:06:09;;;;;;;;;1.50;1.50;;;;;13.61;73.56;101414.69;5101330;27;45263;-59
2022/12/26 09:08:35;;;;;;;;;3.00;2.00;;;;;13.62;73.64;101427.19;5101144;27;46064;-59
2022/12/26 09:11:07;;;;;;;;;1.00;1.00;;;;;13.56;73.37;101414.84;5101327;27;45447;-60
2022/12/26 09:13:33;;;;;;;;;1.00;1.00;;;;;13.57;73.61;101416.59;5083088;27;45580;-59
2022/12/26 09:16:11;;;;;;;;;1.00;1.00;;;;;13.57;73.53;101415.72;5079393;27;45317;-59
2022/12/26 09:18:37;;;;;;;;;1.75;1.75;;;;;13.59;73.31;101424.59;5093140;27;46088;-60
2022/12/26 09:21:04;;;;;;;;;1.75;1.75;;;;;13.63;73.58;101434.28;5101002;27;45303;-59
2022/12/26 09:23:31;;;;;;;;;2.00;2.00;;;;;13.59;73.66;101425.47;5101291;27;45516;-59
2022/12/26 09:26:06;;;;;;;;;1.25;1.00;;;;;13.58;73.36;101429.09;5082559;27;45566;-60
2022/12/26 09:28:33;;;;;;;;;2.75;2.00;;;;;13.56;73.54;101420.19;5101183;27;45827;-59
2022/12/26 09:31:04;;;;;;;;;2.75;2.00;;;;;13.57;73.51;101430.00;5082516;27;45831;-59
2022/12/26 09:33:32;;;;;;;;;2.25;2.00;;;;;13.69;73.19;101445.69;5080455;27;45370;-59
2022/12/26 09:35:57;;;;;;;;;1.00;0.50;;;;;13.70;73.30;101443.88;5082536;27;46106;-59
2022/12/26 09:38:23;;;;;;;;;4.50;1.00;;;;;13.61;73.54;101428.09;5100451;27;46699;-60
2022/12/26 09:41:18;;;;;;;;;1.00;0.00;;;;;13.61;73.38;101425.41;5101010;27;45243;-59
2022/12/26 09:43:59;;;;;;;;;2.00;2.00;;;;;13.71;73.34;101451.88;5100790;27;45520;-59
2022/12/26 09:46:46;;;;;;;;;1.00;1.00;;;;;13.68;73.63;101435.00;5082142;27;45584;-59
2022/12/26 09:49:17;;;;;;;;;1.00;1.00;;;;;13.61;73.55;101438.81;5081898;27;46178;-59
2022/12/26 09:51:47;;;;;;;;;2.00;1.00;;;;;13.75;73.53;101458.03;5078772;28;45892;-59
2022/12/26 09:54:31;;;;;;;;;1.25;1.00;;;;;13.66;73.54;101445.78;5092744;27;45390;-59
2022/12/26 09:56:58;;;;;;;;;2.00;1.00;;;;;13.70;73.36;101460.84;5100696;27;45327;-59
2022/12/26 09:59:25;;;;;;;;;2.00;0.75;;;;;13.76;73.38;101461.56;5100164;27;45471;-59
2022/12/26 10:01:52;;;;;;;;;1.25;1.25;;;;;13.71;73.56;101459.94;5101006;27;45753;-59
2022/12/26 10:04:26;;;;;;;;;1.00;1.00;;;;;13.76;73.54;101458.91;5100150;27;45421;-60
2022/12/26 10:07:16;;;;;;;;;0.75;0.00;;;;;13.78;73.53;101459.72;5100561;27;45374;-59
2022/12/26 10:10:06;;;;;;;;;3.25;1.75;;;;;13.77;73.55;101455.28;5081708;27;46760;-59
2022/12/26 10:12:31;;;;;;;;;2.75;1.00;;;;;13.75;73.68;101459.81;5081693;27;46074;-59
2022/12/26 10:15:13;;;;;;;;;1.75;1.00;;;;;13.73;73.56;101461.69;5100640;27;45492;-59
2022/12/26 10:18:00;;;;;;;;;0.75;0.00;;;;;13.76;73.45;101464.25;5100222;27;45310;-59
2022/12/26 10:20:43;;;;;;;;;1.00;1.00;;;;;13.77;73.46;101468.72;5099806;27;46163;-60
2022/12/26 10:23:14;;;;;;;;;0.00;0.00;;;;;13.77;73.44;101463.34;5100155;27;45512;-60
2022/12/26 10:25:50;;;;;;;;;2.50;1.00;;;;;13.74;73.55;101461.63;5100057;27;45504;-59
2022/12/26 10:28:46;;;;;;;;;2.00;1.25;;;;;13.78;73.63;101459.72;5100130;27;45405;-59
2022/12/26 10:31:41;;;;;;;;;0.00;0.00;;;;;13.66;73.36;101451.13;5080666;27;47721;-59
2022/12/26 10:34:15;;;;;;;;;1.50;1.50;;;;;13.77;73.13;101464.22;5101453;27;45565;-59
2022/12/26 10:36:50;;;;;;;;;1.00;1.00;;;;;13.66;73.00;101443.09;5102031;27;45374;-59
2022/12/26 10:39:38;;;;;;;;;1.25;1.00;;;;;13.78;73.40;101455.25;5120479;27;45504;-60
2022/12/26 10:42:38;;;;;;;;;0.00;0.00;;;;;13.71;73.51;101442.94;5120437;27;45417;-59
2022/12/26 10:45:15;;;;;;;;;1.75;1.00;;;;;13.83;73.39;101460.44;5101789;27;45396;-60
2022/12/26 10:47:45;;;;;;;;;0.00;0.00;;;;;13.84;73.34;101464.88;5101865;27;45534;-60
2022/12/26 10:50:17;;;;;;;;;2.50;1.00;;;;;13.87;73.33;101471.00;5101479;27;45313;-60
2022/12/26 10:52:42;;;;;;;;;1.00;1.00;;;;;13.80;73.14;101453.38;5120096;27;45452;-59
2022/12/26 10:55:17;;;;;;;;;4.00;4.00;;;;;13.79;72.97;101465.03;5120161;27;45446;-60
2022/12/26 10:57:45;;;;;;;;;0.75;0.75;;;;;13.89;73.12;101473.63;5092739;27;45409;-60
2022/12/26 11:00:21;;;;;;;;;1.00;1.00;;;;;13.85;73.09;101472.00;5101875;27;45511;-60
2022/12/26 11:03:02;;;;;;;;;0.00;0.00;;;;;13.87;72.75;101471.00;5101476;27;48142;-59
2022/12/26 11:05:28;;;;;;;;;1.75;1.00;;;;;13.79;72.78;101456.09;5122109;27;45348;-60
2022/12/26 11:07:56;;;;;;;;;2.00;2.00;;;;;13.88;72.90;101472.78;5105120;27;45394;-60
2022/12/26 11:10:26;;;;;;;;;1.00;1.00;;;;;13.87;72.60;101464.78;5123932;27;45416;-59
2022/12/26 11:12:54;;;;;;;;;1.00;1.00;;;;;13.92;72.88;101478.03;5123580;27;45500;-59
2022/12/26 11:15:46;;;;;;;;;1.00;0.00;;;;;13.96;72.82;101485.03;5123672;27;45418;-60
2022/12/26 11:18:15;;;;;;;;;1.25;0.50;;;;;13.98;72.73;101475.13;5123667;27;45337;-59
2022/12/26 11:20:40;;;;;;;;;3.50;1.00;;;;;13.88;72.79;101459.34;5105017;27;45555;-60
2022/12/26 11:23:29;;;;;;;;;0.00;0.00;;;;;13.93;72.55;101464.53;5123417;27;46208;-59
2022/12/26 11:25:59;;;;;;;;;1.25;1.00;;;;;13.93;72.80;101463.66;5123455;27;45391;-59
2022/12/26 11:28:33;;;;;;;;;1.00;1.00;;;;;13.99;72.93;101471.53;5123602;27;45445;-59
2022/12/26 11:31:02;;;;;;;;;1.00;1.00;;;;;13.98;72.65;101462.59;5121857;27;45229;-60
2022/12/26 11:33:39;;;;;;;;;1.00;1.00;;;;;13.97;72.30;101468.03;5083833;27;47801;-59
2022/12/26 11:36:10;;;;;;;;;1.00;1.00;;;;;13.89;72.62;101447.66;5084305;27;45605;-60
2022/12/26 11:39:01;;;;;;;;;0.75;0.75;;;;;14.02;72.43;101474.09;5080868;28;45305;-60
2022/12/26 11:41:33;;;;;;;;;0.50;0.00;;;;;13.98;72.58;101465.28;5088886;27;45420;-59
2022/12/26 11:44:17;;;;;;;;;1.25;0.50;;;;;13.96;72.29;101466.25;5102478;27;45974;-60
2022/12/26 11:46:53;;;;;;;;;1.75;0.50;;;;;13.99;72.63;101480.44;5102496;27;45842;-60
2022/12/26 11:49:28;;;;;;;;;2.00;1.00;;;;;14.01;72.62;101494.69;5102414;27;45467;-60
2022/12/26 11:51:54;;;;;;;;;1.00;1.00;;;;;14.02;72.53;101488.38;5084182;27;45552;-60
2022/12/26 11:54:32;;;;;;;;;0.00;0.00;;;;;14.04;72.38;101501.75;5102370;27;46534;-60
2022/12/26 11:57:11;;;;;;;;;3.00;2.00;;;;;14.06;72.44;101500.75;5102494;27;45377;-60
2022/12/26 11:59:38;;;;;;;;;1.00;1.00;;;;;14.06;72.24;101478.41;5102247;27;45449;-60
2022/12/26 12:02:29;;;;;;;;;0.75;0.75;;;;;14.10;72.17;101490.81;5102502;27;45388;-59
2022/12/26 12:04:59;;;;;;;;;0.50;0.50;;;;;14.04;71.49;101483.84;5102204;27;45488;-59
2022/12/26 12:07:40;;;;;;;;;2.50;1.00;;;;;14.12;71.62;101490.75;5084058;27;45602;-59
2022/12/26 12:10:57;;;;;;;;;0.00;0.00;;;;;14.15;71.79;101487.94;5102377;27;45318;-60
2022/12/26 12:13:28;;;;;;;;;0.75;0.75;;;;;14.18;71.56;101479.78;5084374;27;45329;-59
2022/12/26 12:16:06;;;;;;;;;2.00;0.00;;;;;14.19;71.18;101470.81;5101884;27;46262;-60
2022/12/26 12:18:45;;;;;;;;;1.00;0.00;;;;;14.12;70.56;101498.81;5083512;27;45774;-60
2022/12/26 12:21:35;;;;;;;;;1.25;1.00;;;;;14.12;71.15;101502.38;5102376;27;45414;-60
2022/12/26 12:24:19;;;;;;;;;0.00;0.00;;;;;14.11;71.24;101516.72;5082798;27;45385;-60
2022/12/26 12:26:59;;;;;;;;;2.00;0.00;;;;;14.05;71.07;101516.94;5101949;27;46294;-60
2022/12/26 12:29:44;;;;;;;;;0.00;0.00;;;;;14.00;71.25;101519.78;5102165;27;45832;-60
2022/12/26 12:32:15;;;;;;;;;2.00;0.75;;;;;13.98;71.30;101532.38;5079566;28;45449;-59
2022/12/26 12:34:51;;;;;;;;;0.00;0.00;;;;;13.81;71.37;101526.69;5085818;27;45459;-60
2022/12/26 12:37:48;;;;;;;;;1.00;0.00;;;;;13.86;71.59;101543.53;5103779;27;47532;-60
2022/12/26 12:40:25;;;;;;;;;0.00;0.00;;;;;13.83;72.08;101540.94;5122186;27;45648;-60
2022/12/26 12:43:08;;;;;;;;;0.25;0.00;;;;;13.70;72.58;101527.94;5122582;27;45335;-59
2022/12/26 12:46:01;;;;;;;;;0.00;0.00;;;;;13.70;72.46;101535.97;5122491;27;45350;-60
2022/12/26 12:49:23;;;;;;;;;1.50;0.00;;;;;13.72;72.81;101546.66;5121945;27;45499;-59
2022/12/26 12:52:08;;;;;;;;;1.00;0.00;;;;;13.67;73.39;101554.00;5116948;27;45314;-59
2022/12/26 12:54:45;;;;;;;;;2.00;0.00;;;;;13.65;73.46;101558.53;5122155;27;45275;-59
2022/12/26 12:57:14;;;;;;;;;1.50;1.00;;;;;13.64;73.26;101554.09;5089955;27;45782;-59
2022/12/26 12:59:53;;;;;;;;;1.00;0.00;;;;;13.58;73.14;101560.53;5097802;27;46354;-60
2022/12/26 13:02:27;;;;;;;;;2.50;0.75;;;;;13.52;73.15;101566.09;5101184;27;45354;-60
2022/12/26 13:05:13;;;;;;;;;2.00;1.00;;;;;13.27;72.59;101540.00;5101284;27;45266;-60
2022/12/26 13:07:44;;;;;;;;;0.25;0.25;;;;;13.36;72.67;101568.34;5082740;27;45465;-59
2022/12/26 13:10:32;;;;;;;;;1.50;1.00;;;;;13.33;72.16;101579.16;5101474;27;45520;-60
2022/12/26 13:13:08;;;;;;;;;0.75;0.00;;;;;13.24;71.89;101566.91;5062527;28;45562;-60
2022/12/26 13:15:41;;;;;;;;;1.00;1.00;;;;;13.27;71.73;101582.03;5110542;27;45348;-59
2022/12/26 13:18:14;;;;;;;;;0.00;0.00;;;;;13.00;70.73;101538.13;5121875;27;45369;-59
2022/12/26 13:20:43;;;;;;;;;1.25;1.00;;;;;13.22;70.45;101583.97;5121565;27;45491;-59
2022/12/26 13:26:44;;;;;;;;;0.00;0.00;;;;;13.08;70.24;101581.66;5121844;27;45353;-60
2022/12/26 13:29:15;;;;;;;;;0.00;0.00;;;;;13.06;70.00;101592.44;5102623;27;45697;-60
2022/12/26 13:31:41;;;;;;;;;2.50;1.00;;;;;13.07;70.06;101596.88;5113696;27;46101;-59
2022/12/26 13:34:16;;;;;;;;;0.00;0.00;;;;;13.02;69.20;101588.09;5078860;28;45876;-60
2022/12/26 13:36:54;;;;;;;;;1.00;1.00;;;;;12.98;69.33;101590.00;5096255;27;45464;-59
2022/12/26 13:39:25;;;;;;;;;1.75;0.00;;;;;12.96;68.71;101597.22;5080519;28;45377;-59
2022/12/26 13:44:41;;;;;;;;;1.00;1.00;;;;;12.90;68.93;101592.00;5080357;28;45458;-59
2022/12/26 13:47:29;;;;;;;;;0.00;0.00;;;;;12.90;68.61;101593.81;5079330;28;45503;-60
2022/12/26 13:49:54;;;;;;;;;1.25;1.00;;;;;12.74;68.57;101571.94;5080002;28;45386;-60
2022/12/26 13:52:32;;;;;;;;;0.00;0.00;;;;;12.82;68.09;101583.31;5078806;28;47014;-59
2022/12/26 13:55:03;;;;;;;;;0.50;0.00;;;;;12.86;67.79;101601.03;5079966;28;45563;-60